Bei Facebook empfehlenBei Twitter postenGoogle plusPinterest

Das Wetter im Erzgebirge am 24.05.2016

Wetter und Klima am 24.05.2016 Holzhau im Erzgebirge (630m ü.NN)
Letzte gemessene Temperatur und Uhrzeit der Messung23:45:00 Uhr9.30 °C
Temperatur (Maximum / Höchstwert) und Uhrzeit der Messung13:30:00 Uhr14.90 °C
Temperatur (Minimum / Tiefstwert) und Uhrzeit der Messung23:45:009.30 °C
Errechneter Absolutwert der Temperaturschwankungen zwischen Tmin und Tmax des Tages5.60 K
Errechnete Tagesmitteltemperatur11.76979 °C
Gesamt - Niederschlag des Tages (in flüssiger Form)1.04 Liter / m²
Luftdruck (Maximum / Höchstwert) und Zeitpunkt der Messung23:30:00 Uhr1009.90 hPa
Luftdruck (Minimum / Tiefstwert) und Zeitpunkt der Messung04:45:00 Uhr1005.20 hPa
Errechneter Absolutwert der Luftdruckschwankungen des Tages4.70 hPa
Höchste gemessene Windgeschwindigkeit und Uhrzeit der Messung23:45:00 Uhr0.00 km/h
Errechnete Windhäufigkeit in Relation zu den Messwerten des Tages0.00000 %
Niedrigste Windkühle (Windchill) und Zeitpunkt der Messung23:45:00 Uhr9.30 °C
Taupunkt (Maximum / Höchstwert) und Uhrzeit der Messung13:15:00 Uhr14.10 °C
Taupunkt (Minimum / Tiefstwert) und Uhrzeit der Messung23:45:008.50 °C
Anzahl der automatisch eingelesenen Messwerte 96

Detaillierte Wetter- und Klima- Messwerte für den 24.05.2016 in Holzhau im Erzgebirge (630m ü.NN)
ZeitTemperaturLuftdruckRel. LuftfeuchteWindWindrichtungWindchillTaupunktNiederschlag l/m²
23:45:009.30 °C1009.80 hPa95.00 %8.50 °C1.04
23:30:009.40 °C1009.90 hPa95.00 %8.60 °C1.04
23:15:009.40 °C1009.70 hPa95.00 %8.60 °C1.04
23:00:009.50 °C1009.70 hPa95.00 %8.70 °C1.04
22:45:009.60 °C1009.70 hPa95.00 %8.80 °C1.04
22:30:009.80 °C1009.50 hPa95.00 %9.00 °C0.52
22:15:009.80 °C1009.70 hPa95.00 %9.00 °C0.52
22:00:009.90 °C1009.50 hPa95.00 %9.10 °C0.52
21:45:0010.10 °C1009.50 hPa95.00 %9.30 °C0.52
21:30:0010.20 °C1009.60 hPa95.00 %9.40 °C0.52
21:15:0010.40 °C1009.40 hPa95.00 %9.60 °C0.52
21:00:0010.50 °C1009.20 hPa95.00 %9.70 °C0.52
20:45:0010.70 °C1009.00 hPa95.00 %9.90 °C0.52
20:30:0010.80 °C1008.90 hPa95.00 %10.00 °C0.52
20:15:0010.90 °C1008.70 hPa95.00 %10.10 °C0.52
20:00:0011.10 °C1008.50 hPa95.00 %10.30 °C0.52
19:45:0011.30 °C1008.40 hPa95.00 %10.50 °C0.52
19:30:0011.50 °C1008.50 hPa95.00 %10.70 °C 
19:15:0011.60 °C1008.20 hPa95.00 %10.80 °C 
19:00:0011.60 °C1008.10 hPa95.00 %10.80 °C 
18:45:0011.80 °C1008.20 hPa95.00 %11.00 °C 
18:30:0011.90 °C1008.00 hPa94.00 %11.00 °C 
18:15:0012.10 °C1008.20 hPa94.00 %11.20 °C 
18:00:0012.10 °C1008.30 hPa94.00 %11.20 °C 
17:45:0012.20 °C1007.80 hPa94.00 %11.30 °C 
17:30:0012.40 °C1007.90 hPa94.00 %11.50 °C 
17:15:0012.70 °C1007.80 hPa94.00 %11.80 °C 
17:00:0012.70 °C1007.70 hPa94.00 %11.80 °C 
16:45:0012.70 °C1007.80 hPa94.00 %11.80 °C 
16:30:0012.80 °C1007.60 hPa94.00 %11.90 °C 
16:15:0012.90 °C1007.60 hPa94.00 %12.00 °C 
16:00:0013.10 °C1007.30 hPa94.00 %12.20 °C 
15:45:0012.90 °C1007.20 hPa94.00 %12.00 °C 
15:30:0012.90 °C1007.30 hPa94.00 %12.00 °C 
15:15:0012.90 °C1007.20 hPa94.00 %12.00 °C 
15:00:0013.20 °C1007.20 hPa94.00 %12.30 °C 
14:45:0013.40 °C1007.10 hPa94.00 %12.50 °C 
14:30:0013.30 °C1007.20 hPa94.00 %12.40 °C 
14:15:0013.20 °C1007.20 hPa94.00 %12.30 °C 
14:00:0013.50 °C1007.20 hPa94.00 %12.60 °C 
13:45:0013.90 °C1007.10 hPa94.00 %13.00 °C 
13:30:0014.90 °C1007.00 hPa94.00 %13.90 °C 
13:15:0014.90 °C1007.00 hPa95.00 %14.10 °C 
13:00:0014.10 °C1006.90 hPa95.00 %13.30 °C 
12:45:0013.90 °C1007.00 hPa96.00 %13.30 °C 
12:30:0013.40 °C1007.00 hPa95.00 %12.60 °C 
12:15:0013.80 °C1007.00 hPa96.00 %13.20 °C 
12:00:0013.30 °C1007.00 hPa95.00 %12.50 °C 
11:45:0013.20 °C1006.80 hPa95.00 %12.40 °C 
11:30:0013.40 °C1006.90 hPa95.00 %12.60 °C 
11:15:0013.10 °C1006.70 hPa95.00 %12.30 °C 
11:00:0012.70 °C1006.40 hPa95.00 %11.90 °C 
10:45:0012.60 °C1006.40 hPa95.00 %11.80 °C 
10:30:0012.70 °C1006.30 hPa95.00 %11.90 °C 
10:15:0012.60 °C1006.20 hPa95.00 %11.80 °C 
10:00:0013.00 °C1006.10 hPa95.00 %12.20 °C 
09:45:0012.80 °C1005.90 hPa95.00 %12.00 °C 
09:30:0012.50 °C1006.00 hPa95.00 %11.70 °C 
09:15:0012.40 °C1006.00 hPa95.00 %11.60 °C 
09:00:0012.20 °C1005.90 hPa95.00 %11.40 °C 
08:45:0012.20 °C1006.00 hPa95.00 %11.40 °C 
08:30:0012.20 °C1005.80 hPa95.00 %11.40 °C 
08:15:0011.90 °C1005.90 hPa95.00 %11.10 °C 
08:00:0011.70 °C1005.60 hPa95.00 %10.90 °C 
07:45:0011.60 °C1005.40 hPa95.00 %10.80 °C 
07:30:0011.40 °C1005.50 hPa95.00 %10.60 °C 
07:15:0011.30 °C1005.50 hPa95.00 %10.50 °C 
07:00:0011.30 °C1005.60 hPa95.00 %10.50 °C 
06:45:0011.30 °C1005.60 hPa95.00 %10.50 °C 
06:30:0011.10 °C1005.50 hPa95.00 %10.30 °C 
06:15:0011.10 °C1005.40 hPa95.00 %10.30 °C 
06:00:0011.10 °C1005.60 hPa95.00 %10.30 °C 
05:45:0011.10 °C1005.70 hPa95.00 %10.30 °C 
05:30:0011.10 °C1005.50 hPa95.00 %10.30 °C 
05:15:0011.20 °C1005.30 hPa94.00 %10.30 °C 
05:00:0011.10 °C1005.30 hPa94.00 %10.20 °C 
04:45:0011.10 °C1005.20 hPa94.00 %10.20 °C 
04:30:0011.10 °C1005.30 hPa94.00 %10.20 °C 
04:15:0011.10 °C1005.30 hPa94.00 %10.20 °C 
04:00:0011.10 °C1005.40 hPa94.00 %10.20 °C 
03:45:0011.00 °C1005.30 hPa94.00 %10.10 °C 
03:30:0011.00 °C1005.30 hPa94.00 %10.10 °C 
03:15:0010.90 °C1005.60 hPa94.00 %10.00 °C 
03:00:0010.90 °C1005.70 hPa94.00 %10.00 °C 
02:45:0010.90 °C1005.60 hPa94.00 %10.00 °C 
02:30:0010.90 °C1005.50 hPa94.00 %10.00 °C 
02:15:0010.90 °C1005.40 hPa94.00 %10.00 °C 
02:00:0010.90 °C1005.80 hPa94.00 %10.00 °C 
01:45:0010.90 °C1005.80 hPa94.00 %10.00 °C 
01:30:0010.90 °C1005.80 hPa93.00 %9.80 °C 
01:15:0010.90 °C1006.00 hPa93.00 %9.80 °C 
01:00:0010.90 °C1006.20 hPa93.00 %9.80 °C 
00:45:0011.00 °C1006.10 hPa93.00 %9.90 °C 
00:30:0011.10 °C1006.00 hPa93.00 %10.00 °C 
00:15:0011.10 °C1006.20 hPa93.00 %10.00 °C 
00:00:0011.10 °C1006.10 hPa93.00 %10.00 °C 

Permanenter Link zu dieser Seite: Wetter im Erzgebirge am 24.05.2016
Performance-Info: Die Erstellung der Seite / Statistik(en) / Tabelle(n) erforderte 5 Datenbankserver-Abfrage(n) und dauerte 123 Millisekunden. (Dieser Messwert ist von der Gesamt-Auslastung des Servers abhängig.)
Erzgebirge - Wetter | Erzgebirge - Wetter (Mobilgeräte) | Komplette Klimadatenbank